createdAt,value
2023-12-03T00:01:45.452Z,15.83
2023-12-03T00:04:12.569Z,16.33
2023-12-03T00:06:41.964Z,16.80
2023-12-03T00:09:09.898Z,16.13
2023-12-03T00:11:36.760Z,15.97
2023-12-03T00:14:03.667Z,16.30
2023-12-03T00:16:30.403Z,15.93
2023-12-03T00:18:57.740Z,15.80
2023-12-03T00:21:24.607Z,15.73
2023-12-03T00:23:51.546Z,16.17
2023-12-03T00:26:18.381Z,16.60
2023-12-03T00:28:47.049Z,16.17
2023-12-03T00:31:13.879Z,16.27
2023-12-03T00:33:40.767Z,17.10
2023-12-03T00:36:07.960Z,16.97
2023-12-03T00:38:34.812Z,17.00
2023-12-03T00:41:01.538Z,16.03
2023-12-03T00:43:28.339Z,16.40
2023-12-03T00:45:55.391Z,16.30
2023-12-03T00:48:22.285Z,17.10
2023-12-03T00:50:50.030Z,16.87
2023-12-03T00:53:16.825Z,16.67
2023-12-03T00:55:43.570Z,17.10
2023-12-03T00:58:10.370Z,17.10
2023-12-03T01:00:37.126Z,17.10
2023-12-03T01:03:03.954Z,17.70
2023-12-03T01:05:30.754Z,17.33
2023-12-03T01:07:57.691Z,16.53
2023-12-03T01:10:24.532Z,16.33
2023-12-03T01:12:51.677Z,16.33
2023-12-03T01:15:18.508Z,15.57
2023-12-03T01:17:45.278Z,15.67
2023-12-03T01:20:12.362Z,16.43
2023-12-03T01:22:39.152Z,15.63
2023-12-03T01:25:06.315Z,15.40
2023-12-03T01:27:33.203Z,17.00
2023-12-03T01:30:00.203Z,16.17
2023-12-03T01:32:27.082Z,16.37
2023-12-03T01:34:53.901Z,15.00
2023-12-03T01:37:20.731Z,16.00
2023-12-03T01:39:47.731Z,17.87
2023-12-03T01:42:14.621Z,19.03
2023-12-03T01:44:41.425Z,18.60
2023-12-03T01:47:08.816Z,18.50
2023-12-03T01:49:36.380Z,18.53
2023-12-03T01:52:04.013Z,17.10
2023-12-03T01:54:36.473Z,17.47
2023-12-03T01:57:03.867Z,17.33
2023-12-03T01:59:32.603Z,18.83
2023-12-03T02:01:59.536Z,16.33
2023-12-03T02:04:26.409Z,17.73
2023-12-03T02:06:53.269Z,17.27
2023-12-03T02:09:21.343Z,16.23
2023-12-03T02:11:48.654Z,15.17
2023-12-03T02:14:15.673Z,16.47
2023-12-03T02:16:46.627Z,15.90
2023-12-03T02:19:13.503Z,16.50
2023-12-03T02:21:41.266Z,15.90
2023-12-03T02:24:08.165Z,15.57
2023-12-03T02:26:35.229Z,15.47
2023-12-03T02:29:02.052Z,15.80
2023-12-03T02:31:31.613Z,15.53
2023-12-03T02:34:07.892Z,14.07
2023-12-03T02:36:35.375Z,15.63
2023-12-03T02:39:02.865Z,16.03
2023-12-03T02:41:29.937Z,16.10
2023-12-03T02:43:56.887Z,15.67
2023-12-03T02:46:23.943Z,17.07
2023-12-03T02:48:51.209Z,15.97
2023-12-03T02:51:18.397Z,17.60
2023-12-03T02:53:46.416Z,16.83
2023-12-03T02:56:16.593Z,18.08
2023-12-03T02:58:43.389Z,17.20
2023-12-03T03:01:10.561Z,18.07
2023-12-03T03:03:37.476Z,16.47
2023-12-03T03:06:04.422Z,17.67
2023-12-03T03:08:31.236Z,17.10
2023-12-03T03:10:57.931Z,17.13
2023-12-03T03:13:24.702Z,17.37
2023-12-03T03:15:51.470Z,16.47
2023-12-03T03:18:18.318Z,17.43
2023-12-03T03:20:45.188Z,17.23
2023-12-03T03:23:11.915Z,17.60
2023-12-03T03:25:38.669Z,16.13
2023-12-03T03:28:05.467Z,17.20
2023-12-03T03:30:32.330Z,16.30
2023-12-03T03:32:59.199Z,17.20
2023-12-03T03:35:26.021Z,16.13
2023-12-03T03:37:52.750Z,16.17
2023-12-03T03:40:19.509Z,17.43
2023-12-03T03:42:46.283Z,17.07
2023-12-03T03:45:13.166Z,17.50
2023-12-03T03:47:40.089Z,16.30
2023-12-03T03:50:07.314Z,17.03
2023-12-03T03:52:34.062Z,16.23
2023-12-03T03:55:00.859Z,16.17
2023-12-03T03:57:27.712Z,15.93
2023-12-03T03:59:54.489Z,16.17
2023-12-03T04:02:21.366Z,16.57
2023-12-03T04:04:48.467Z,16.20
2023-12-03T04:07:15.491Z,17.47
2023-12-03T04:09:42.410Z,17.20
2023-12-03T04:12:09.208Z,16.97
2023-12-03T04:14:36.509Z,16.63
2023-12-03T04:17:04.646Z,15.77
2023-12-03T04:19:31.559Z,16.33
2023-12-03T04:21:58.335Z,17.13
2023-12-03T04:24:25.158Z,16.17
2023-12-03T04:26:52.056Z,16.63
2023-12-03T04:29:18.952Z,17.03
2023-12-03T04:31:45.716Z,16.83
2023-12-03T04:34:13.589Z,16.40
2023-12-03T04:36:43.137Z,16.43
2023-12-03T04:39:10.394Z,16.40
2023-12-03T04:41:39.005Z,15.67
2023-12-03T04:44:05.951Z,16.83
2023-12-03T04:46:32.831Z,15.60
2023-12-03T04:48:59.765Z,17.23
2023-12-03T04:51:26.861Z,16.47
2023-12-03T04:53:53.823Z,16.30
2023-12-03T04:56:20.563Z,17.47
2023-12-03T04:58:47.331Z,16.67
2023-12-03T05:01:17.188Z,17.30
2023-12-03T05:03:48.618Z,15.57
2023-12-03T05:06:15.714Z,16.53
2023-12-03T05:08:42.590Z,16.83
2023-12-03T05:11:09.691Z,16.27
2023-12-03T05:13:36.516Z,16.80
2023-12-03T05:16:07.668Z,15.43
2023-12-03T05:18:34.737Z,15.43
2023-12-03T05:21:02.791Z,16.97
2023-12-03T05:23:29.626Z,15.83
2023-12-03T05:25:58.178Z,15.80
2023-12-03T05:28:24.959Z,15.60
2023-12-03T05:30:51.819Z,15.93
2023-12-03T05:33:18.793Z,15.60
2023-12-03T05:35:45.718Z,15.20
2023-12-03T05:38:12.539Z,16.07
2023-12-03T05:40:39.439Z,14.33
2023-12-03T05:43:06.235Z,14.87
2023-12-03T05:45:33.082Z,14.90
2023-12-03T05:47:59.969Z,14.20
2023-12-03T05:50:26.740Z,14.33
2023-12-03T05:52:53.476Z,14.07
2023-12-03T05:55:20.763Z,14.70
2023-12-03T05:57:47.579Z,14.67
2023-12-03T06:00:14.967Z,14.57
2023-12-03T06:02:42.037Z,14.80
2023-12-03T06:05:09.012Z,15.97
2023-12-03T06:07:35.902Z,14.93
2023-12-03T06:10:02.869Z,14.70
2023-12-03T06:12:30.213Z,13.90
2023-12-03T06:14:56.994Z,13.93
2023-12-03T06:17:23.802Z,13.90
2023-12-03T06:19:50.657Z,12.57
2023-12-03T06:22:17.487Z,12.53
2023-12-03T06:24:44.348Z,11.47
2023-12-03T06:27:11.177Z,12.50
2023-12-03T06:29:37.936Z,12.40
2023-12-03T06:32:04.827Z,12.07
2023-12-03T06:34:31.644Z,11.63
2023-12-03T06:36:59.638Z,12.03
2023-12-03T06:39:26.564Z,11.13
2023-12-03T06:41:53.514Z,12.47
2023-12-03T06:44:31.000Z,11.63
2023-12-03T06:47:06.275Z,10.70
2023-12-03T06:49:34.472Z,11.33
2023-12-03T06:52:01.367Z,11.87
2023-12-03T06:54:28.372Z,11.57
2023-12-03T06:56:55.234Z,11.10
2023-12-03T06:59:22.034Z,11.43
2023-12-03T07:01:48.848Z,11.77
2023-12-03T07:04:15.554Z,12.17
2023-12-03T07:06:42.450Z,12.00
2023-12-03T07:09:36.263Z,11.97
2023-12-03T07:11:56.097Z,11.97
2023-12-03T07:14:22.824Z,12.13
2023-12-03T07:16:49.647Z,12.40
2023-12-03T07:19:16.418Z,12.47
2023-12-03T07:21:43.373Z,13.00
2023-12-03T07:24:10.137Z,12.43
2023-12-03T07:26:36.992Z,11.97
2023-12-03T07:29:03.963Z,12.70
2023-12-03T07:31:32.248Z,13.13
2023-12-03T07:33:59.042Z,13.20
2023-12-03T07:36:26.794Z,13.03
2023-12-03T07:38:53.600Z,12.20
2023-12-03T07:41:20.380Z,13.00
2023-12-03T07:43:47.168Z,13.47
2023-12-03T07:46:18.120Z,13.33
2023-12-03T07:48:45.847Z,12.90
2023-12-03T07:51:13.345Z,12.87
2023-12-03T07:53:41.267Z,13.03
2023-12-03T07:56:09.569Z,13.67
2023-12-03T07:58:37.268Z,12.57
2023-12-03T08:01:06.562Z,14.40
2023-12-03T08:03:33.913Z,13.30
2023-12-03T08:06:00.935Z,13.07
2023-12-03T08:08:27.862Z,12.47
2023-12-03T08:10:54.765Z,14.27
2023-12-03T08:13:21.627Z,15.17
2023-12-03T08:15:48.420Z,14.77
2023-12-03T08:18:15.289Z,15.17
2023-12-03T08:20:42.116Z,15.97
2023-12-03T08:23:08.963Z,15.13
2023-12-03T08:25:35.783Z,15.17
2023-12-03T08:28:03.795Z,13.43
2023-12-03T08:30:30.628Z,13.87
2023-12-03T08:32:57.649Z,13.17
2023-12-03T08:35:24.434Z,13.80
2023-12-03T08:37:51.236Z,14.47
2023-12-03T08:40:18.111Z,14.60
2023-12-03T08:42:45.768Z,15.20
2023-12-03T08:45:12.882Z,14.83
2023-12-03T08:47:39.770Z,14.23
2023-12-03T08:50:07.392Z,15.07
2023-12-03T08:52:34.567Z,14.40
2023-12-03T08:55:02.098Z,15.57
2023-12-03T08:57:28.902Z,15.37
2023-12-03T08:59:55.769Z,14.97
2023-12-03T09:02:22.805Z,15.57
2023-12-03T09:04:52.318Z,15.77
2023-12-03T09:07:19.383Z,16.43
2023-12-03T09:09:46.802Z,15.33
2023-12-03T09:12:15.274Z,16.60
2023-12-03T09:14:42.042Z,15.57
2023-12-03T09:17:08.894Z,15.63
2023-12-03T09:19:35.774Z,15.70
2023-12-03T09:22:02.801Z,15.53
2023-12-03T09:24:29.637Z,16.33
2023-12-03T09:26:56.465Z,16.23
2023-12-03T09:29:23.258Z,15.47
2023-12-03T09:31:50.026Z,15.70
2023-12-03T09:34:16.931Z,15.80
2023-12-03T09:36:43.783Z,14.93
2023-12-03T09:39:10.918Z,14.57
2023-12-03T09:41:49.340Z,14.43
2023-12-03T09:44:32.702Z,15.53
2023-12-03T09:47:00.611Z,13.40
2023-12-03T09:49:31.224Z,14.03
2023-12-03T09:52:03.802Z,14.40
2023-12-03T09:54:32.866Z,14.80
2023-12-03T09:57:00.716Z,14.27
2023-12-03T09:59:27.970Z,15.10
2023-12-03T10:01:58.655Z,15.23
2023-12-03T10:04:28.835Z,14.53
2023-12-03T10:06:59.661Z,14.80
2023-12-03T10:09:27.762Z,14.67
2023-12-03T10:11:56.576Z,14.33
2023-12-03T10:14:23.833Z,14.80
2023-12-03T10:16:51.361Z,14.00
2023-12-03T10:19:26.537Z,14.37
2023-12-03T10:21:54.722Z,14.00
2023-12-03T10:24:21.655Z,13.43
2023-12-03T10:26:52.947Z,13.73
2023-12-03T10:29:27.202Z,14.20
2023-12-03T10:31:54.618Z,13.97
2023-12-03T10:34:22.540Z,13.87
2023-12-03T10:36:51.129Z,12.90
2023-12-03T10:39:21.423Z,12.87
2023-12-03T10:41:50.667Z,13.93
2023-12-03T10:44:25.578Z,16.00
2023-12-03T10:46:52.386Z,16.03
2023-12-03T10:49:21.693Z,15.30
2023-12-03T10:51:49.000Z,15.40
2023-12-03T10:54:16.063Z,14.97
2023-12-03T10:56:44.560Z,15.33
2023-12-03T10:59:21.947Z,15.90
2023-12-03T11:01:55.026Z,14.00
2023-12-03T11:04:35.571Z,16.63
2023-12-03T11:07:07.506Z,14.30
2023-12-03T11:09:41.757Z,13.27
2023-12-03T11:12:10.658Z,14.43
2023-12-03T11:14:38.090Z,14.63
2023-12-03T11:17:18.938Z,13.13
2023-12-03T11:19:55.374Z,15.67
2023-12-03T11:22:47.902Z,13.43
2023-12-03T11:25:32.681Z,15.40
2023-12-03T11:27:59.613Z,13.63
2023-12-03T11:30:43.269Z,15.90
2023-12-03T11:33:16.554Z,13.73
2023-12-03T11:35:47.664Z,13.93
2023-12-03T11:38:23.433Z,14.82
2023-12-03T11:40:51.001Z,13.85
2023-12-03T11:43:27.578Z,15.98
2023-12-03T11:45:54.744Z,16.23
2023-12-03T11:48:23.952Z,17.17
2023-12-03T11:50:51.222Z,15.60
2023-12-03T11:53:18.501Z,15.77
2023-12-03T11:55:50.339Z,17.65
2023-12-03T11:58:18.190Z,15.10
2023-12-03T12:00:48.134Z,14.02
2023-12-03T12:03:15.276Z,17.20
2023-12-03T12:05:50.405Z,16.05
2023-12-03T12:08:21.164Z,17.55
2023-12-03T12:10:51.287Z,16.77
2023-12-03T12:13:20.365Z,16.38
2023-12-03T12:15:47.794Z,15.63
2023-12-03T12:18:14.725Z,16.10
2023-12-03T12:20:41.670Z,16.03
2023-12-03T12:23:08.481Z,15.43
2023-12-03T12:25:35.376Z,15.37
2023-12-03T12:28:02.459Z,14.30
2023-12-03T12:30:34.812Z,14.70
2023-12-03T12:33:04.034Z,13.67
2023-12-03T12:35:31.305Z,14.43
2023-12-03T12:38:01.416Z,14.50
2023-12-03T12:40:31.181Z,14.57
2023-12-03T12:43:13.893Z,14.10
2023-12-03T12:45:41.603Z,13.87
2023-12-03T12:48:25.470Z,13.97
2023-12-03T12:50:52.645Z,13.20
2023-12-03T12:53:20.109Z,13.40
2023-12-03T12:55:46.953Z,12.83
2023-12-03T12:58:13.814Z,13.03
2023-12-03T13:00:40.599Z,13.20
2023-12-03T13:03:07.451Z,11.70
2023-12-03T13:05:34.417Z,12.40
2023-12-03T13:08:01.752Z,11.87
2023-12-03T13:10:28.580Z,12.93
2023-12-03T13:12:55.549Z,12.43
2023-12-03T13:15:22.742Z,12.47
2023-12-03T13:17:55.595Z,12.10
2023-12-03T13:20:23.663Z,12.40
2023-12-03T13:22:51.160Z,11.67
2023-12-03T13:25:18.940Z,12.40
2023-12-03T13:27:46.033Z,11.20
2023-12-03T13:30:13.029Z,12.17
2023-12-03T13:32:41.822Z,11.37
2023-12-03T13:35:10.169Z,12.07
2023-12-03T13:37:37.593Z,11.60
2023-12-03T13:40:07.755Z,12.70
2023-12-03T13:42:35.684Z,12.83
2023-12-03T13:45:04.108Z,12.57
2023-12-03T13:47:33.417Z,11.93
2023-12-03T13:50:02.142Z,13.23
2023-12-03T13:52:29.340Z,11.80
2023-12-03T13:54:57.804Z,12.50
2023-12-03T13:57:24.765Z,10.90
2023-12-03T13:59:52.045Z,11.33
2023-12-03T14:02:27.995Z,11.90
2023-12-03T14:05:12.511Z,10.73
2023-12-03T14:07:47.775Z,10.53
2023-12-03T14:10:15.134Z,10.80
2023-12-03T14:12:42.306Z,10.63
2023-12-03T14:15:09.688Z,11.40
2023-12-03T14:17:36.587Z,11.10
2023-12-03T14:20:06.322Z,10.80
2023-12-03T14:22:33.624Z,11.30
2023-12-03T14:25:00.739Z,11.03
2023-12-03T14:27:27.736Z,11.33
2023-12-03T14:29:54.632Z,10.63
2023-12-03T14:32:21.640Z,10.27
2023-12-03T14:34:48.469Z,11.33
2023-12-03T14:37:15.321Z,11.67
2023-12-03T14:39:42.175Z,12.50
2023-12-03T14:42:09.096Z,11.53
2023-12-03T14:44:36.055Z,11.27
2023-12-03T14:47:03.459Z,11.03
2023-12-03T14:49:30.374Z,10.30
2023-12-03T14:51:57.267Z,11.10
2023-12-03T14:54:24.202Z,10.50
2023-12-03T14:56:51.464Z,10.40
2023-12-03T14:59:18.260Z,11.33
2023-12-03T15:01:46.419Z,10.13
2023-12-03T15:04:13.330Z,10.50
2023-12-03T15:06:40.165Z,10.20
2023-12-03T15:09:07.068Z,10.67
2023-12-03T15:11:33.868Z,10.90
2023-12-03T15:14:01.103Z,11.13
2023-12-03T15:16:29.853Z,10.40
2023-12-03T15:18:57.182Z,10.67
2023-12-03T15:21:24.237Z,10.37
2023-12-03T15:23:51.316Z,10.50
2023-12-03T15:26:18.237Z,10.97
2023-12-03T15:28:45.125Z,10.83
2023-12-03T15:31:12.464Z,10.50
2023-12-03T15:33:41.348Z,10.93
2023-12-03T15:36:09.036Z,10.57
2023-12-03T15:38:35.835Z,10.60
2023-12-03T15:41:02.620Z,10.27
2023-12-03T15:43:34.406Z,11.17
2023-12-03T15:46:08.754Z,10.57
2023-12-03T15:48:36.037Z,10.53
2023-12-03T15:51:03.330Z,11.07
2023-12-03T15:53:30.422Z,11.83
2023-12-03T15:55:57.677Z,11.00
2023-12-03T15:58:25.603Z,11.00
2023-12-03T16:00:53.030Z,10.63
2023-12-03T16:03:21.248Z,11.30
2023-12-03T16:05:48.499Z,10.80
2023-12-03T16:08:15.346Z,11.80
2023-12-03T16:10:42.204Z,11.63
2023-12-03T16:13:09.094Z,10.50
2023-12-03T16:15:36.017Z,10.23
2023-12-03T16:18:03.069Z,10.40
2023-12-03T16:20:30.081Z,9.77
2023-12-03T16:22:56.979Z,10.53
2023-12-03T16:25:24.792Z,10.00
2023-12-03T16:27:51.608Z,10.27
2023-12-03T16:30:18.544Z,10.10
2023-12-03T16:32:45.492Z,10.47
2023-12-03T16:35:12.879Z,10.67
2023-12-03T16:37:40.520Z,13.03
2023-12-03T16:40:08.914Z,12.00
2023-12-03T16:42:36.649Z,11.20
2023-12-03T16:45:04.080Z,11.10
2023-12-03T16:47:31.199Z,10.33
2023-12-03T16:49:59.758Z,10.37
2023-12-03T16:52:26.696Z,11.87
2023-12-03T16:54:55.135Z,11.00
2023-12-03T16:57:22.595Z,11.30
2023-12-03T16:59:50.025Z,11.03
2023-12-03T17:02:17.156Z,11.37
2023-12-03T17:04:44.787Z,10.00
2023-12-03T17:07:12.272Z,10.83
2023-12-03T17:09:39.392Z,10.77
2023-12-03T17:12:06.435Z,10.63
2023-12-03T17:14:33.374Z,10.90
2023-12-03T17:17:00.177Z,11.50
2023-12-03T17:19:27.119Z,11.13
2023-12-03T17:21:53.973Z,11.53
2023-12-03T17:24:20.849Z,11.90
2023-12-03T17:26:47.752Z,11.27
2023-12-03T17:29:14.622Z,11.80
2023-12-03T17:31:42.518Z,10.53
2023-12-03T17:34:09.610Z,12.33
2023-12-03T17:36:36.649Z,12.77
2023-12-03T17:39:07.894Z,12.57
2023-12-03T17:41:35.897Z,12.33
2023-12-03T17:44:03.012Z,12.63
2023-12-03T17:46:29.999Z,12.13
2023-12-03T17:48:57.063Z,11.50
2023-12-03T17:51:28.532Z,13.93
2023-12-03T17:53:55.471Z,14.87
2023-12-03T17:56:22.252Z,13.13
2023-12-03T17:58:49.055Z,13.57
2023-12-03T18:01:18.599Z,12.93
2023-12-03T18:03:46.870Z,12.73
2023-12-03T18:06:14.099Z,13.23
2023-12-03T18:08:40.994Z,12.03
2023-12-03T18:11:07.892Z,11.47
2023-12-03T18:13:34.679Z,12.50
2023-12-03T18:16:01.748Z,12.07
2023-12-03T18:18:28.864Z,11.40
2023-12-03T18:20:56.044Z,12.00
2023-12-03T18:23:24.311Z,11.80
2023-12-03T18:25:54.298Z,12.10
2023-12-03T18:28:21.136Z,11.13
2023-12-03T18:30:48.858Z,11.77
2023-12-03T18:33:18.739Z,11.20
2023-12-03T18:35:46.726Z,12.07
2023-12-03T18:38:13.641Z,12.57
2023-12-03T18:40:44.196Z,11.03
2023-12-03T18:43:11.287Z,11.93
2023-12-03T18:45:38.305Z,11.53
2023-12-03T18:48:05.570Z,11.27
2023-12-03T18:50:32.461Z,11.93
2023-12-03T18:53:00.148Z,11.10
2023-12-03T18:55:26.990Z,11.23
2023-12-03T18:57:54.038Z,11.37
2023-12-03T19:00:22.011Z,11.10
2023-12-03T19:02:49.766Z,11.17
2023-12-03T19:05:17.385Z,11.13
2023-12-03T19:07:50.273Z,11.13
2023-12-03T19:10:19.669Z,11.87
2023-12-03T19:12:51.054Z,11.73
2023-12-03T19:15:22.560Z,10.83
2023-12-03T19:17:49.415Z,11.73
2023-12-03T19:20:16.297Z,10.83
2023-12-03T19:22:43.171Z,10.43
2023-12-03T19:25:09.920Z,11.20
2023-12-03T19:27:36.861Z,11.27
2023-12-03T19:30:03.911Z,11.43
2023-12-03T19:32:31.129Z,11.70
2023-12-03T19:34:58.167Z,12.73
2023-12-03T19:37:25.117Z,14.57
2023-12-03T19:39:52.330Z,23.87
2023-12-03T19:42:19.268Z,15.50
2023-12-03T19:44:46.068Z,13.73
2023-12-03T19:47:13.027Z,12.07
2023-12-03T19:49:39.801Z,11.77
2023-12-03T19:52:07.003Z,12.03
2023-12-03T19:54:33.839Z,12.63
2023-12-03T19:57:01.906Z,11.73
2023-12-03T19:59:29.375Z,11.30
2023-12-03T20:01:57.500Z,10.67
2023-12-03T20:04:24.521Z,14.90
2023-12-03T20:06:51.860Z,12.13
2023-12-03T20:09:18.845Z,11.13
2023-12-03T20:11:45.632Z,11.30
2023-12-03T20:14:12.473Z,11.97
2023-12-03T20:16:39.330Z,11.87
2023-12-03T20:19:07.464Z,11.60
2023-12-03T20:21:34.439Z,11.37
2023-12-03T20:24:01.264Z,11.67
2023-12-03T20:26:28.034Z,11.30
2023-12-03T20:28:54.829Z,10.37
2023-12-03T20:31:22.609Z,11.27
2023-12-03T20:33:49.650Z,12.03
2023-12-03T20:36:16.572Z,11.07
2023-12-03T20:38:43.410Z,11.50
2023-12-03T20:41:23.287Z,11.00
2023-12-03T20:43:50.845Z,11.33
2023-12-03T20:46:18.636Z,11.20
2023-12-03T20:48:46.124Z,10.23
2023-12-03T20:51:14.170Z,10.53
2023-12-03T20:53:41.732Z,11.97
2023-12-03T20:56:10.242Z,10.73
2023-12-03T20:58:37.062Z,10.40
2023-12-03T21:01:04.244Z,10.63
2023-12-03T21:03:31.328Z,10.97
2023-12-03T21:05:58.969Z,11.17
2023-12-03T21:08:25.824Z,10.37
2023-12-03T21:10:52.581Z,10.57
2023-12-03T21:13:19.783Z,10.33
2023-12-03T21:15:46.746Z,11.30
2023-12-03T21:18:13.676Z,12.17
2023-12-03T21:20:40.520Z,11.13
2023-12-03T21:23:07.415Z,11.57
2023-12-03T21:25:35.036Z,11.63
2023-12-03T21:28:02.088Z,11.27
2023-12-03T21:30:29.371Z,11.50
2023-12-03T21:32:57.964Z,10.83
2023-12-03T21:35:25.020Z,10.77
2023-12-03T21:37:51.931Z,10.20
2023-12-03T21:40:18.695Z,9.77
2023-12-03T21:42:45.681Z,9.83
2023-12-03T21:45:12.611Z,10.77
2023-12-03T21:47:39.587Z,10.10
2023-12-03T21:50:07.305Z,11.00
2023-12-03T21:52:34.161Z,9.97
2023-12-03T21:55:01.302Z,9.70
2023-12-03T21:57:28.245Z,10.00
2023-12-03T21:59:55.144Z,9.27
2023-12-03T22:02:22.121Z,10.23
2023-12-03T22:04:49.552Z,10.00
2023-12-03T22:07:16.498Z,10.57
2023-12-03T22:09:43.361Z,9.43
2023-12-03T22:12:10.146Z,10.07
2023-12-03T22:14:37.016Z,9.40
2023-12-03T22:17:05.592Z,9.97
2023-12-03T22:19:32.734Z,9.47
2023-12-03T22:21:59.899Z,10.70
2023-12-03T22:24:27.264Z,9.73
2023-12-03T22:26:54.300Z,10.63
2023-12-03T22:29:29.769Z,10.17
2023-12-03T22:32:04.386Z,9.80
2023-12-03T22:34:31.350Z,10.13
2023-12-03T22:36:58.224Z,10.13
2023-12-03T22:39:25.572Z,10.13
2023-12-03T22:41:52.423Z,9.57
2023-12-03T22:44:19.178Z,10.27
2023-12-03T22:46:46.032Z,9.97
2023-12-03T22:49:17.607Z,9.10
2023-12-03T22:51:44.578Z,10.17
2023-12-03T22:54:11.500Z,9.30
2023-12-03T22:56:38.252Z,9.97
2023-12-03T22:59:05.119Z,9.70
2023-12-03T23:01:31.899Z,9.33
2023-12-03T23:03:58.810Z,10.10
2023-12-03T23:06:25.805Z,9.13
2023-12-03T23:08:52.656Z,9.03
2023-12-03T23:11:19.589Z,9.80
2023-12-03T23:13:46.566Z,9.63
2023-12-03T23:16:13.580Z,10.03
2023-12-03T23:18:42.219Z,10.33
2023-12-03T23:21:09.158Z,10.70
2023-12-03T23:23:35.964Z,9.50
2023-12-03T23:26:02.814Z,9.70
2023-12-03T23:28:29.802Z,9.17
2023-12-03T23:30:56.885Z,10.10
2023-12-03T23:33:23.945Z,9.60
2023-12-03T23:35:50.807Z,10.20
2023-12-03T23:38:17.606Z,9.47
2023-12-03T23:40:44.389Z,9.93
2023-12-03T23:43:11.240Z,10.33
2023-12-03T23:45:38.022Z,10.27
2023-12-03T23:48:05.015Z,10.27
2023-12-03T23:50:31.840Z,9.17
2023-12-03T23:52:58.915Z,9.43
2023-12-03T23:55:26.176Z,10.07
2023-12-03T23:57:53.034Z,9.70
